createdAt,value
2018-09-11T00:01:58.631Z,69.40
2018-09-11T00:07:02.002Z,69.70
2018-09-11T00:12:05.859Z,69.10
2018-09-11T00:17:09.213Z,69.70
2018-09-11T00:22:12.589Z,69.70
2018-09-11T00:27:16.039Z,69.40
2018-09-11T00:32:19.793Z,69.50
2018-09-11T00:37:23.078Z,70.20
2018-09-11T00:42:26.509Z,70.00
2018-09-11T00:47:29.758Z,70.00
2018-09-11T00:52:33.082Z,70.40
2018-09-11T00:57:36.389Z,69.70
2018-09-11T01:02:39.726Z,70.90
2018-09-11T01:07:42.948Z,70.40
2018-09-11T01:12:46.203Z,70.60
2018-09-11T01:17:49.558Z,70.70
2018-09-11T01:22:53.447Z,70.90
2018-09-11T01:27:56.912Z,70.80
2018-09-11T01:33:00.158Z,71.40
2018-09-11T01:38:04.403Z,71.40
2018-09-11T01:43:07.643Z,71.70
2018-09-11T01:48:11.051Z,71.40
2018-09-11T01:53:14.351Z,71.30
2018-09-11T01:58:17.561Z,71.50
2018-09-11T02:03:20.889Z,71.70
2018-09-11T02:08:24.267Z,71.80
2018-09-11T02:13:27.610Z,71.80
2018-09-11T02:18:31.064Z,71.60
2018-09-11T02:23:34.359Z,71.80
2018-09-11T02:28:37.797Z,71.80
2018-09-11T02:33:41.166Z,72.10
2018-09-11T02:38:44.509Z,72.60
2018-09-11T02:43:48.078Z,72.30
2018-09-11T02:48:51.341Z,72.60
2018-09-11T02:53:54.662Z,72.70
2018-09-11T02:58:57.970Z,72.70
2018-09-11T03:04:01.309Z,72.80
2018-09-11T03:09:05.726Z,72.60
2018-09-11T03:14:10.044Z,72.70
2018-09-11T03:19:13.353Z,72.40
2018-09-11T03:24:16.684Z,72.90
2018-09-11T03:29:20.166Z,73.00
2018-09-11T03:34:23.468Z,73.00
2018-09-11T03:39:26.781Z,73.00
2018-09-11T03:44:30.178Z,73.00
2018-09-11T03:49:34.348Z,73.40
2018-09-11T03:54:39.154Z,73.30
2018-09-11T03:59:42.518Z,73.40
2018-09-11T04:04:45.812Z,73.60
2018-09-11T04:09:49.173Z,73.30
2018-09-11T04:14:52.799Z,73.40
2018-09-11T04:19:56.076Z,73.80
2018-09-11T04:24:59.381Z,73.60
2018-09-11T04:30:03.739Z,73.20
2018-09-11T04:35:07.213Z,73.40
2018-09-11T04:40:10.532Z,73.20
2018-09-11T04:45:13.841Z,73.90
2018-09-11T04:50:17.096Z,73.80
2018-09-11T04:55:20.445Z,74.50
2018-09-11T05:00:23.864Z,74.70
2018-09-11T05:05:27.317Z,74.60
2018-09-11T05:10:30.641Z,74.60
2018-09-11T05:15:34.155Z,74.70
2018-09-11T05:20:37.693Z,74.30
2018-09-11T05:25:41.032Z,74.50
2018-09-11T05:30:44.394Z,75.40
2018-09-11T05:35:47.784Z,75.30
2018-09-11T05:40:51.099Z,75.50
2018-09-11T05:45:54.427Z,75.50
2018-09-11T05:50:57.732Z,76.00
2018-09-11T05:56:01.121Z,76.30
2018-09-11T06:01:04.544Z,76.00
2018-09-11T06:06:08.002Z,76.10
2018-09-11T06:11:11.393Z,76.10
2018-09-11T06:16:14.852Z,77.20
2018-09-11T06:21:18.196Z,77.00
2018-09-11T06:26:21.554Z,76.50
2018-09-11T06:31:24.895Z,76.40
2018-09-11T06:36:28.507Z,76.10
2018-09-11T06:41:31.783Z,75.90
2018-09-11T06:46:35.152Z,75.10
2018-09-11T06:51:38.546Z,74.00
2018-09-11T06:56:41.830Z,73.30
2018-09-11T07:01:45.163Z,72.90
2018-09-11T07:06:48.486Z,72.30
2018-09-11T07:11:52.386Z,72.00
2018-09-11T07:16:55.745Z,71.70
2018-09-11T07:21:59.534Z,71.60
2018-09-11T07:27:03.567Z,70.40
2018-09-11T07:32:07.065Z,69.70
2018-09-11T07:37:10.489Z,69.30
2018-09-11T07:42:13.926Z,68.80
2018-09-11T07:47:17.253Z,68.20
2018-09-11T07:52:20.576Z,68.40
2018-09-11T07:57:23.669Z,68.20
2018-09-11T08:02:26.965Z,67.90
2018-09-11T08:07:30.236Z,67.30
2018-09-11T08:12:33.549Z,67.10
2018-09-11T08:17:36.659Z,66.90
2018-09-11T08:22:39.760Z,67.10
2018-09-11T08:27:42.871Z,66.70
2018-09-11T08:32:45.971Z,66.80
2018-09-11T08:37:49.093Z,67.30
2018-09-11T08:42:52.361Z,66.30
2018-09-11T08:47:55.468Z,66.00
2018-09-11T08:52:58.586Z,65.70
2018-09-11T08:58:01.702Z,64.70
2018-09-11T09:03:05.835Z,64.10
2018-09-11T09:08:08.944Z,63.50
2018-09-11T09:13:12.048Z,62.60
2018-09-11T09:18:15.156Z,63.60
2018-09-11T09:23:18.464Z,63.20
2018-09-11T09:28:21.572Z,62.60
2018-09-11T09:33:24.668Z,62.40
2018-09-11T09:38:27.827Z,61.70
2018-09-11T09:43:31.086Z,60.60
2018-09-11T09:48:34.692Z,60.50
2018-09-11T09:53:37.986Z,59.80
2018-09-11T09:58:41.270Z,59.70
2018-09-11T10:03:44.636Z,58.40
2018-09-11T10:08:47.900Z,58.50
2018-09-11T10:13:51.176Z,57.90
2018-09-11T10:18:55.359Z,57.50
2018-09-11T10:23:58.692Z,57.10
2018-09-11T10:29:01.990Z,55.80
2018-09-11T10:34:05.772Z,56.10
2018-09-11T10:39:09.770Z,56.40
2018-09-11T10:44:13.145Z,55.80
2018-09-11T10:49:16.616Z,55.80
2018-09-11T10:54:20.441Z,53.80
2018-09-11T10:59:23.816Z,53.40
2018-09-11T11:04:28.227Z,52.20
2018-09-11T11:09:31.518Z,52.60
2018-09-11T11:14:34.778Z,50.70
2018-09-11T11:19:38.057Z,50.60
2018-09-11T11:24:41.303Z,50.30
2018-09-11T11:29:44.689Z,50.60
2018-09-11T11:34:47.995Z,49.40
2018-09-11T11:39:51.200Z,48.50
2018-09-11T11:44:54.455Z,47.90
2018-09-11T11:49:57.691Z,48.70
2018-09-11T11:55:00.903Z,48.90
2018-09-11T12:00:04.279Z,49.00
2018-09-11T12:05:07.610Z,49.10
2018-09-11T12:10:10.882Z,48.60
2018-09-11T12:15:14.175Z,48.70
2018-09-11T12:20:17.370Z,48.50
2018-09-11T12:25:20.672Z,48.40
2018-09-11T12:30:24.118Z,48.60
2018-09-11T12:35:27.365Z,49.70
2018-09-11T12:40:30.803Z,49.20
2018-09-11T12:45:34.041Z,47.90
2018-09-11T12:50:37.366Z,48.00
2018-09-11T12:55:40.643Z,48.00
2018-09-11T13:00:45.108Z,48.30
2018-09-11T13:05:48.572Z,48.10
2018-09-11T13:10:51.848Z,48.20
2018-09-11T13:15:55.221Z,48.70
2018-09-11T13:20:58.505Z,48.30
2018-09-11T13:26:01.756Z,47.90
2018-09-11T13:31:05.733Z,47.20
2018-09-11T13:36:09.174Z,47.00
2018-09-11T13:41:13.082Z,47.00
2018-09-11T13:46:16.336Z,46.50
2018-09-11T13:51:19.531Z,46.80
2018-09-11T13:56:22.834Z,46.20
2018-09-11T14:01:26.100Z,46.20
2018-09-11T14:06:29.337Z,46.00
2018-09-11T14:11:32.742Z,45.90
2018-09-11T14:16:36.023Z,45.60
2018-09-11T14:21:39.262Z,45.00
2018-09-11T14:26:42.575Z,44.30
2018-09-11T14:31:45.845Z,45.00
2018-09-11T14:36:49.265Z,44.80
2018-09-11T14:41:52.597Z,44.70
2018-09-11T14:46:55.934Z,44.50
2018-09-11T14:51:59.232Z,43.50
2018-09-11T14:57:02.634Z,44.30
2018-09-11T15:02:06.049Z,44.30
2018-09-11T15:07:09.308Z,42.90
2018-09-11T15:12:12.531Z,43.00
2018-09-11T15:17:16.551Z,42.30
2018-09-11T15:22:19.931Z,43.10
2018-09-11T15:27:23.184Z,41.90
2018-09-11T15:32:26.423Z,43.80
2018-09-11T15:37:29.658Z,43.20
2018-09-11T15:42:33.067Z,42.80
2018-09-11T15:47:36.245Z,43.40
2018-09-11T15:52:39.498Z,43.90
2018-09-11T15:57:42.702Z,43.60
2018-09-11T16:02:45.792Z,43.90
2018-09-11T16:07:48.896Z,43.50
2018-09-11T16:12:52.131Z,44.20
2018-09-11T16:17:56.357Z,44.50
2018-09-11T16:22:59.616Z,44.70
2018-09-11T16:28:02.992Z,45.00
2018-09-11T16:33:06.446Z,45.70
2018-09-11T16:38:09.859Z,46.10
2018-09-11T16:43:13.142Z,46.70
2018-09-11T16:48:16.660Z,46.70
2018-09-11T16:53:19.768Z,47.10
2018-09-11T16:58:23.377Z,48.00
2018-09-11T17:03:26.641Z,48.50
2018-09-11T17:08:30.240Z,49.30
2018-09-11T17:13:35.323Z,49.90
2018-09-11T17:18:39.161Z,50.30
2018-09-11T17:23:42.603Z,51.00
2018-09-11T17:28:46.072Z,52.90
2018-09-11T17:33:49.537Z,53.20
2018-09-11T17:38:53.025Z,53.10
2018-09-11T17:43:56.491Z,53.30
2018-09-11T17:48:59.993Z,53.90
2018-09-11T17:54:03.725Z,54.20
2018-09-11T17:59:07.080Z,54.90
2018-09-11T18:04:10.368Z,55.30
2018-09-11T18:09:13.838Z,55.60
2018-09-11T18:14:17.201Z,55.90
2018-09-11T18:19:20.497Z,56.60
2018-09-11T18:24:23.610Z,57.20
2018-09-11T18:29:26.713Z,56.80
2018-09-11T18:34:29.814Z,57.00
2018-09-11T18:39:32.929Z,57.10
2018-09-11T18:44:36.083Z,57.20
2018-09-11T18:49:39.149Z,57.40
2018-09-11T18:54:42.261Z,57.30
2018-09-11T18:59:45.373Z,57.60
2018-09-11T19:04:48.477Z,57.50
2018-09-11T19:09:51.589Z,57.90
2018-09-11T19:14:54.820Z,57.80
2018-09-11T19:19:58.328Z,58.10
2018-09-11T19:25:01.456Z,58.40
2018-09-11T19:30:07.332Z,58.50
2018-09-11T19:35:10.575Z,58.80
2018-09-11T19:40:13.842Z,59.00
2018-09-11T19:45:17.061Z,59.10
2018-09-11T19:50:20.527Z,59.40
2018-09-11T19:55:24.541Z,59.60
2018-09-11T20:00:27.812Z,59.90
2018-09-11T20:05:31.097Z,59.90
2018-09-11T20:10:34.412Z,59.70
2018-09-11T20:15:37.692Z,59.80
2018-09-11T20:20:40.962Z,59.90
2018-09-11T20:25:44.080Z,60.10
2018-09-11T20:30:47.221Z,60.20
2018-09-11T20:35:50.334Z,60.40
2018-09-11T20:40:53.437Z,60.70
2018-09-11T20:45:56.560Z,61.10
2018-09-11T20:50:59.696Z,61.50
2018-09-11T20:56:02.866Z,61.50
2018-09-11T21:01:05.904Z,61.80
2018-09-11T21:06:09.165Z,61.90
2018-09-11T21:11:12.279Z,62.10
2018-09-11T21:16:15.392Z,62.20
2018-09-11T21:21:18.502Z,62.70
2018-09-11T21:26:21.652Z,62.90
2018-09-11T21:31:24.769Z,63.40
2018-09-11T21:36:27.871Z,63.60
2018-09-11T21:41:30.987Z,63.80
2018-09-11T21:46:34.110Z,64.20
2018-09-11T21:51:37.228Z,64.40
2018-09-11T21:56:40.340Z,64.30
2018-09-11T22:01:48.571Z,64.50
2018-09-11T22:06:51.833Z,64.30
2018-09-11T22:11:54.979Z,64.40
2018-09-11T22:16:58.052Z,64.50
2018-09-11T22:22:01.172Z,64.60
2018-09-11T22:27:04.281Z,64.00
2018-09-11T22:32:07.396Z,64.80
2018-09-11T22:37:10.534Z,64.50
2018-09-11T22:42:13.736Z,64.70
2018-09-11T22:47:16.849Z,64.80
2018-09-11T22:52:19.960Z,65.10
2018-09-11T22:57:23.076Z,65.40
2018-09-11T23:02:26.184Z,65.60
2018-09-11T23:07:29.293Z,65.20
2018-09-11T23:12:32.408Z,65.30
2018-09-11T23:17:35.512Z,65.30
2018-09-11T23:22:39.488Z,65.50
2018-09-11T23:27:42.596Z,65.00
2018-09-11T23:32:45.706Z,65.90
2018-09-11T23:37:48.819Z,66.00
2018-09-11T23:42:51.938Z,66.10
2018-09-11T23:47:55.152Z,66.50
2018-09-11T23:52:58.251Z,66.10
2018-09-11T23:58:01.421Z,66.70
